Time;durP1;ratioP1;P1;durP2;ratioP2;P2;SDS_P1;SDS_P2;PMS_P1;PMS_P2;Temp;Humidity;BMP_temperature;BMP_pressure;BME280_temperature;BME280_humidity;BME280_pressure;Samples;Min_cycle;Max_cycle;Signal;HPM_P1;HPM_P2
2022/05/11 00:02:10;;;;;;;12.07;6.93;;;;;;;;;;6218296;28;20029;-83
2022/05/11 00:05:12;;;;;;;14.02;6.75;;;;;;;;;;6201143;28;20021;-83
2022/05/11 00:08:12;;;;;;;15.40;6.72;;;;;;;;;;6200742;28;20396;-83
2022/05/11 00:11:12;;;;;;;14.73;6.37;;;;;;;;;;6236809;28;20504;-83
2022/05/11 00:14:13;;;;;;;12.95;6.70;;;;;;;;;;6243444;28;20267;-83
2022/05/11 00:17:13;;;;;;;11.90;6.88;;;;;;;;;;6242985;28;20487;-83
2022/05/11 00:20:14;;;;;;;13.67;6.97;;;;;;;;;;6225115;28;20052;-83
2022/05/11 00:23:14;;;;;;;15.67;6.70;;;;;;;;;;6211197;28;20770;-83
2022/05/11 00:26:15;;;;;;;13.82;6.22;;;;;;;;;;6218198;28;20323;-83
2022/05/11 00:29:16;;;;;;;17.48;8.27;;;;;;;;;;6200927;28;20477;-83
2022/05/11 00:32:16;;;;;;;17.73;7.72;;;;;;;;;;6218503;28;20029;-83
2022/05/11 00:35:16;;;;;;;15.85;8.38;;;;;;;;;;6217935;28;20401;-84
2022/05/11 00:38:18;;;;;;;19.30;7.05;;;;;;;;;;6218018;28;20012;-84
2022/05/11 00:41:18;;;;;;;17.02;6.90;;;;;;;;;;6225247;28;20430;-84
2022/05/11 00:44:20;;;;;;;12.95;6.38;;;;;;;;;;6224791;28;20020;-83
2022/05/11 00:47:22;;;;;;;19.77;8.00;;;;;;;;;;6193894;28;20018;-83
2022/05/11 00:50:24;;;;;;;13.13;6.30;;;;;;;;;;6192584;28;20033;-83
2022/05/11 00:53:25;;;;;;;19.92;8.23;;;;;;;;;;6192476;28;20052;-83
2022/05/11 00:56:25;;;;;;;15.45;7.15;;;;;;;;;;6201092;28;20022;-83
2022/05/11 00:59:28;;;;;;;15.00;8.50;;;;;;;;;;6200561;28;20010;-85
2022/05/11 01:02:28;;;;;;;13.95;7.18;;;;;;;;;;6217336;28;20017;-84
2022/05/11 01:05:29;;;;;;;18.02;6.75;;;;;;;;;;6199890;28;20554;-84
2022/05/11 01:08:30;;;;;;;15.40;7.10;;;;;;;;;;6213771;28;20044;-84
2022/05/11 01:11:30;;;;;;;16.17;7.43;;;;;;;;;;6224446;28;20017;-83
2022/05/11 01:14:33;;;;;;;14.65;5.82;;;;;;;;;;6242350;28;20066;-83
2022/05/11 01:17:33;;;;;;;;;;;;;;;;;;6242360;28;20504;-83
2022/05/11 01:20:35;;;;;;;14.30;7.18;;;;;;;;;;6241613;28;20446;-83
2022/05/11 01:23:39;;;;;;;16.17;6.93;;;;;;;;;;6199529;28;20071;-83
2022/05/11 01:26:39;;;;;;;10.98;5.78;;;;;;;;;;6206018;28;20026;-83
2022/05/11 01:29:39;;;;;;;17.23;6.43;;;;;;;;;;6192522;28;20385;-83
2022/05/11 01:32:41;;;;;;;18.97;7.03;;;;;;;;;;6192036;28;20792;-83
2022/05/11 01:35:41;;;;;;;14.50;5.88;;;;;;;;;;6192862;28;20268;-83
2022/05/11 01:38:49;;;;;;;13.43;6.87;;;;;;;;;;6229073;28;20010;-83
2022/05/11 01:41:50;;;;;;;13.73;5.57;;;;;;;;;;6242317;28;20264;-83
2022/05/11 01:44:50;;;;;;;13.50;5.50;;;;;;;;;;6241639;28;20057;-83
2022/05/11 01:47:53;;;;;;;17.47;6.97;;;;;;;;;;6241249;28;20369;-85
2022/05/11 01:50:53;;;;;;;15.07;6.80;;;;;;;;;;6223446;28;20264;-83
2022/05/11 01:53:54;;;;;;;13.57;6.93;;;;;;;;;;6223806;28;20033;-83
2022/05/11 01:56:54;;;;;;;15.00;8.23;;;;;;;;;;6217739;28;20022;-84
2022/05/11 01:59:54;;;;;;;15.98;7.32;;;;;;;;;;6217437;28;20050;-84
2022/05/11 02:02:54;;;;;;;15.52;6.05;;;;;;;;;;6199226;28;20029;-84
2022/05/11 02:09:14;;;;;;;15.80;6.35;;;;;;;;;;6239637;28;20280;-84
2022/05/11 02:12:15;;;;;;;15.30;5.97;;;;;;;;;;6227374;28;20102;-83
2022/05/11 02:15:16;;;;;;;16.30;6.32;;;;;;;;;;6244991;28;20014;-83
2022/05/11 02:18:16;;;;;;;12.57;6.95;;;;;;;;;;6245429;28;20013;-83
2022/05/11 02:21:16;;;;;;;13.93;5.88;;;;;;;;;;6245539;28;20024;-83
2022/05/11 02:24:18;;;;;;;15.40;6.43;;;;;;;;;;6223420;28;20018;-83
2022/05/11 02:27:18;;;;;;;9.00;5.40;;;;;;;;;;6220278;28;20257;-83
2022/05/11 02:30:21;;;;;;;10.68;6.05;;;;;;;;;;6203308;28;20249;-83
2022/05/11 02:33:21;;;;;;;13.43;5.47;;;;;;;;;;6220541;28;20465;-83
2022/05/11 02:36:23;;;;;;;15.48;5.82;;;;;;;;;;6224011;28;20029;-83
2022/05/11 02:39:23;;;;;;;13.57;6.18;;;;;;;;;;6243798;28;20014;-83
2022/05/11 02:42:23;;;;;;;16.60;7.03;;;;;;;;;;6244968;28;20102;-83
2022/05/11 02:45:24;;;;;;;18.43;6.73;;;;;;;;;;6244764;28;20029;-83
2022/05/11 02:48:25;;;;;;;12.40;6.20;;;;;;;;;;6245206;28;20268;-83
2022/05/11 02:51:26;;;;;;;13.25;7.10;;;;;;;;;;6243390;28;20025;-83
2022/05/11 02:54:26;;;;;;;16.73;6.55;;;;;;;;;;6182615;28;20038;-83
2022/05/11 02:57:27;;;;;;;11.65;6.57;;;;;;;;;;6216070;28;20481;-83
2022/05/11 03:00:27;;;;;;;11.02;6.82;;;;;;;;;;6185351;28;20013;-83
2022/05/11 03:03:33;;;;;;;12.02;5.15;;;;;;;;;;6220132;28;20022;-83
2022/05/11 03:06:33;;;;;;;11.85;6.07;;;;;;;;;;6213515;28;20027;-83
2022/05/11 03:09:34;;;;;;;12.77;5.70;;;;;;;;;;6194585;28;20104;-83
2022/05/11 03:12:34;;;;;;;18.35;6.05;;;;;;;;;;6195033;28;20929;-83
2022/05/11 03:15:34;;;;;;;15.45;5.38;;;;;;;;;;6177506;28;20057;-83
2022/05/11 03:18:35;;;;;;;13.48;5.35;;;;;;;;;;6195044;28;20469;-83
2022/05/11 03:21:35;;;;;;;10.17;5.33;;;;;;;;;;6195788;28;20022;-83
2022/05/11 03:24:35;;;;;;;14.52;5.70;;;;;;;;;;6252133;28;20258;-83
2022/05/11 03:27:35;;;;;;;9.83;5.63;;;;;;;;;;6322075;28;20027;-83
2022/05/11 03:30:36;;;;;;;12.05;5.57;;;;;;;;;;6304424;28;20278;-83
2022/05/11 03:37:13;;;;;;;12.20;6.35;;;;;;;;;;6232640;28;20586;-83
2022/05/11 03:40:13;;;;;;;11.88;5.68;;;;;;;;;;6205344;28;20030;-83
2022/05/11 03:43:13;;;;;;;16.98;6.03;;;;;;;;;;6215767;28;20388;-83
2022/05/11 03:46:14;;;;;;;15.55;6.85;;;;;;;;;;6201857;28;20404;-84
2022/05/11 03:49:14;;;;;;;20.10;7.50;;;;;;;;;;6219647;28;20018;-83
2022/05/11 03:52:17;;;;;;;16.85;8.88;;;;;;;;;;6216846;28;20087;-83
2022/05/11 03:55:18;;;;;;;17.65;8.77;;;;;;;;;;6207316;28;20052;-83
2022/05/11 03:58:18;;;;;;;25.90;15.15;;;;;;;;;;6177624;28;20014;-83
2022/05/11 04:01:19;;;;;;;16.63;9.90;;;;;;;;;;6194310;28;20369;-83
2022/05/11 04:04:19;;;;;;;11.20;7.38;;;;;;;;;;6207909;28;20006;-83
2022/05/11 04:07:19;;;;;;;12.77;6.63;;;;;;;;;;6222286;28;20017;-83
2022/05/11 04:10:20;;;;;;;13.73;8.17;;;;;;;;;;6225827;28;20358;-84
2022/05/11 04:13:20;;;;;;;14.23;8.05;;;;;;;;;;6243059;28;20375;-83
2022/05/11 04:16:21;;;;;;;15.40;7.07;;;;;;;;;;6225230;28;20029;-83
2022/05/11 04:19:21;;;;;;;17.95;7.95;;;;;;;;;;6225076;28;20369;-83
2022/05/11 04:22:21;;;;;;;14.07;6.87;;;;;;;;;;6222655;28;20013;-83
2022/05/11 04:25:23;;;;;;;19.27;9.33;;;;;;;;;;6207073;28;20276;-83
2022/05/11 04:28:23;;;;;;;;;;;;;;;;;;6218104;28;20290;-83
2022/05/11 04:31:24;;;;;;;15.60;7.90;;;;;;;;;;6205637;28;19958;-84
2022/05/11 04:34:24;;;;;;;14.63;7.73;;;;;;;;;;6207547;28;20382;-83
2022/05/11 04:37:25;;;;;;;14.35;7.50;;;;;;;;;;6207124;28;20628;-83
2022/05/11 04:40:25;;;;;;;15.27;7.35;;;;;;;;;;6210068;28;20049;-83
2022/05/11 04:43:25;;;;;;;15.60;8.27;;;;;;;;;;6200065;28;20021;-83
2022/05/11 04:46:26;;;;;;;13.93;7.77;;;;;;;;;;6200633;28;20186;-83
2022/05/11 04:49:26;;;;;;;21.05;7.70;;;;;;;;;;6212549;28;20278;-84
2022/05/11 04:52:26;;;;;;;20.60;7.88;;;;;;;;;;6200226;28;20067;-83
2022/05/11 04:55:26;;;;;;;18.80;8.25;;;;;;;;;;6209401;28;20052;-83
2022/05/11 04:58:27;;;;;;;14.55;6.72;;;;;;;;;;6185989;28;20388;-83
2022/05/11 05:01:27;;;;;;;13.50;7.13;;;;;;;;;;6203475;28;20014;-84
2022/05/11 05:04:27;;;;;;;14.52;7.80;;;;;;;;;;6205674;28;20640;-84
2022/05/11 05:07:28;;;;;;;16.35;7.60;;;;;;;;;;6187208;28;20042;-83
2022/05/11 05:10:28;;;;;;;15.23;7.93;;;;;;;;;;6211746;28;20037;-83
2022/05/11 05:13:28;;;;;;;10.73;6.53;;;;;;;;;;6195714;28;20372;-84
2022/05/11 05:16:28;;;;;;;15.17;8.07;;;;;;;;;;6191500;28;20341;-84
2022/05/11 05:19:29;;;;;;;17.40;7.68;;;;;;;;;;6193661;28;20033;-84
2022/05/11 05:22:30;;;;;;;18.60;10.00;;;;;;;;;;6180190;28;20019;-84
2022/05/11 05:25:30;;;;;;;17.88;8.73;;;;;;;;;;6205666;28;20014;-84
2022/05/11 05:31:50;;;;;;;12.18;7.63;;;;;;;;;;6194251;28;20038;-84
2022/05/11 05:34:50;;;;;;;19.17;9.47;;;;;;;;;;6195058;28;20025;-84
2022/05/11 05:37:50;;;;;;;18.07;9.17;;;;;;;;;;6222538;28;20052;-84
2022/05/11 05:40:50;;;;;;;19.93;7.87;;;;;;;;;;6226876;28;20049;-84
2022/05/11 05:43:51;;;;;;;15.67;7.97;;;;;;;;;;6213534;28;20018;-84
2022/05/11 05:46:51;;;;;;;12.47;7.63;;;;;;;;;;6209858;28;20053;-83
2022/05/11 05:49:52;;;;;;;18.87;8.27;;;;;;;;;;6197854;28;20029;-84
2022/05/11 05:52:53;;;;;;;16.90;7.50;;;;;;;;;;6194504;28;20083;-84
2022/05/11 05:55:54;;;;;;;14.05;7.93;;;;;;;;;;6219816;28;20034;-84
2022/05/11 05:58:59;;;;;;;14.90;7.67;;;;;;;;;;6207139;28;20022;-84
2022/05/11 06:01:59;;;;;;;16.52;9.45;;;;;;;;;;6210211;28;20026;-84
2022/05/11 06:04:59;;;;;;;13.07;8.80;;;;;;;;;;6209991;28;20014;-84
2022/05/11 06:07:59;;;;;;;17.43;7.50;;;;;;;;;;6192183;28;20060;-84
2022/05/11 06:11:00;;;;;;;12.17;6.60;;;;;;;;;;6204195;28;20042;-84
2022/05/11 06:14:00;;;;;;;19.07;8.20;;;;;;;;;;6197968;28;20034;-84
2022/05/11 06:17:01;;;;;;;15.53;8.00;;;;;;;;;;6220217;28;20025;-85
2022/05/11 06:20:01;;;;;;;17.17;8.65;;;;;;;;;;6220546;28;20093;-85
2022/05/11 06:23:03;;;;;;;19.00;6.77;;;;;;;;;;6225600;28;20373;-85
2022/05/11 06:26:04;;;;;;;19.05;8.23;;;;;;;;;;6195070;28;20074;-85
2022/05/11 06:29:05;;;;;;;21.08;7.28;;;;;;;;;;6202312;28;20013;-85
2022/05/11 06:32:06;;;;;;;21.10;8.88;;;;;;;;;;6219730;28;20026;-85
2022/05/11 06:35:06;;;;;;;22.80;7.10;;;;;;;;;;6220392;28;20018;-84
2022/05/11 06:38:08;;;;;;;9.38;5.53;;;;;;;;;;6236243;28;20054;-85
2022/05/11 06:41:09;;;;;;;15.88;6.80;;;;;;;;;;6226517;28;20022;-84
2022/05/11 06:44:09;;;;;;;19.98;6.55;;;;;;;;;;6226654;28;20468;-84
2022/05/11 06:47:10;;;;;;;13.87;5.60;;;;;;;;;;6201304;28;20034;-85
2022/05/11 06:50:11;;;;;;;13.63;6.73;;;;;;;;;;6210216;28;20508;-85
2022/05/11 06:53:13;;;;;;;12.95;6.10;;;;;;;;;;6213394;28;20552;-85
2022/05/11 06:59:35;;;;;;;10.18;4.55;;;;;;;;;;6219675;28;20451;-85
2022/05/11 07:02:37;;;;;;;11.80;4.97;;;;;;;;;;6201722;28;20496;-85
2022/05/11 07:05:37;;;;;;;10.40;4.78;;;;;;;;;;6198716;28;20033;-85
2022/05/11 07:08:37;;;;;;;;;;;;;;;;;;6190923;28;20393;-84
2022/05/11 07:14:57;;;;;;;8.73;4.10;;;;;;;;;;6204164;28;20018;-84
2022/05/11 07:17:59;;;;;;;;;;;;;;;;;;6208023;28;20025;-84
2022/05/11 07:20:59;;;;;;;11.43;4.50;;;;;;;;;;6194602;28;20258;-84
2022/05/11 07:23:59;;;;;;;;;;;;;;;;;;6208284;28;20014;-84
2022/05/11 07:27:00;;;;;;;11.73;3.83;;;;;;;;;;6218462;28;19949;-84
2022/05/11 07:30:00;;;;;;;;;;;;;;;;;;6219130;28;20098;-84
2022/05/11 07:33:00;;;;;;;8.25;3.20;;;;;;;;;;6217760;28;19913;-85
2022/05/11 07:36:01;;;;;;;;;;;;;;;;;;6220586;28;20440;-85
2022/05/11 07:39:01;;;;;;;7.30;3.70;;;;;;;;;;6241148;28;20322;-85
2022/05/11 07:42:01;;;;;;;;;;;;;;;;;;6225737;28;20010;-85
2022/05/11 07:45:03;;;;;;;9.23;4.07;;;;;;;;;;6243054;28;20432;-84
2022/05/11 07:48:04;;;;;;;10.55;4.03;;;;;;;;;;6224890;28;20022;-85
2022/05/11 07:51:04;;;;;;;;;;;;;;;;;;6242792;28;20032;-85
2022/05/11 07:54:04;;;;;;;9.63;3.78;;;;;;;;;;6223199;28;20420;-85
2022/05/11 08:00:25;;;;;;;8.23;3.80;;;;;;;;;;6218273;28;20041;-85
2022/05/11 08:03:26;;;;;;;5.93;3.25;;;;;;;;;;6217754;28;20022;-85
2022/05/11 08:06:26;;;;;;;6.60;3.53;;;;;;;;;;6215608;28;20026;-85
2022/05/11 08:09:26;;;;;;;10.43;3.40;;;;;;;;;;6216434;28;20037;-85
2022/05/11 08:12:27;;;;;;;7.60;4.55;;;;;;;;;;6213875;28;20567;-85
2022/05/11 08:15:27;;;;;;;7.22;3.30;;;;;;;;;;6203537;28;20494;-85
2022/05/11 08:18:28;;;;;;;6.22;3.33;;;;;;;;;;6190694;28;20021;-85
2022/05/11 08:21:29;;;;;;;8.60;3.78;;;;;;;;;;6205652;28;20018;-85
2022/05/11 08:24:31;;;;;;;6.93;3.42;;;;;;;;;;6213163;28;20059;-85
2022/05/11 08:27:31;;;;;;;7.70;3.10;;;;;;;;;;6212312;28;20021;-85
2022/05/11 08:33:51;;;;;;;6.15;3.35;;;;;;;;;;6193119;28;20035;-85
2022/05/11 08:36:51;;;;;;;10.80;3.70;;;;;;;;;;6199569;28;21172;-85
2022/05/11 08:39:51;;;;;;;7.60;4.13;;;;;;;;;;6212189;28;20021;-85
2022/05/11 08:42:51;;;;;;;4.33;3.33;;;;;;;;;;6198275;28;20052;-85
2022/05/11 08:46:09;;;;;;;9.90;3.63;;;;;;;;;;6204568;28;20026;-85
2022/05/11 08:49:10;;;;;;;12.20;3.85;;;;;;;;;;6216338;28;20018;-85
2022/05/11 08:52:33;;;;;;;7.57;3.30;;;;;;;;;;6216966;28;20057;-85
2022/05/11 08:55:37;;;;;;;7.00;3.15;;;;;;;;;;6214274;28;20493;-85
2022/05/11 08:58:41;;;;;;;7.70;3.97;;;;;;;;;;6212420;28;20377;-85
2022/05/11 09:01:48;;;;;;;11.18;4.00;;;;;;;;;;6194817;28;20071;-85
2022/05/11 09:04:50;;;;;;;5.30;3.47;;;;;;;;;;6210708;28;20473;-85
2022/05/11 09:07:53;;;;;;;10.65;3.85;;;;;;;;;;6195693;28;20033;-85
2022/05/11 09:10:54;;;;;;;7.93;3.75;;;;;;;;;;6213476;28;20261;-85
2022/05/11 09:13:56;;;;;;;10.10;3.97;;;;;;;;;;6179391;28;20072;-85
2022/05/11 09:16:56;;;;;;;7.25;4.10;;;;;;;;;;6191565;28;20022;-85
2022/05/11 09:20:07;;;;;;;9.80;4.13;;;;;;;;;;6175121;28;20359;-86
2022/05/11 09:23:08;;;;;;;;;;;;;;;;;;6216075;28;20380;-85
2022/05/11 09:26:10;;;;;;;6.20;3.27;;;;;;;;;;6198204;28;19917;-85
2022/05/11 09:29:21;;;;;;;8.65;3.47;;;;;;;;;;6216383;28;20756;-85
2022/05/11 09:32:22;;;;;;;;;;;;;;;;;;6213689;28;20422;-85
2022/05/11 09:35:28;;;;;;;10.15;4.00;;;;;;;;;;6197247;28;20311;-85
2022/05/11 09:38:36;;;;;;;7.53;3.47;;;;;;;;;;6186289;28;20097;-84
2022/05/11 09:41:36;;;;;;;9.38;3.92;;;;;;;;;;6203703;28;20026;-84
2022/05/11 09:44:36;;;;;;;;;;;;;;;;;;6198642;28;20025;-84
2022/05/11 09:48:02;;;;;;;10.77;4.10;;;;;;;;;;6196576;28;20368;-84
2022/05/11 09:51:14;;;;;;;4.53;3.35;;;;;;;;;;6200605;28;20073;-85
2022/05/11 09:54:15;;;;;;;8.52;4.20;;;;;;;;;;6200911;28;20028;-84
2022/05/11 09:57:15;;;;;;;;;;;;;;;;;;6193127;28;20033;-84
2022/05/11 10:00:20;;;;;;;7.53;3.28;;;;;;;;;;6203642;28;20232;-84
2022/05/11 10:03:25;;;;;;;8.55;3.70;;;;;;;;;;6181467;28;20062;-85
2022/05/11 10:06:29;;;;;;;11.32;4.25;;;;;;;;;;6195272;28;20067;-85
2022/05/11 10:09:32;;;;;;;5.13;3.55;;;;;;;;;;6216142;28;20052;-85
2022/05/11 10:12:36;;;;;;;10.55;5.95;;;;;;;;;;6223333;28;20026;-84
2022/05/11 10:22:40;;;;;;;10.13;3.95;;;;;;;;;;6196501;28;20041;-84
2022/05/11 10:25:45;;;;;;;8.27;3.53;;;;;;;;;;6213483;28;20093;-84
2022/05/11 10:28:49;;;;;;;5.80;3.97;;;;;;;;;;6217283;28;20018;-84
2022/05/11 10:31:55;;;;;;;5.63;3.70;;;;;;;;;;6220326;28;20033;-84
2022/05/11 10:35:10;;;;;;;7.40;3.42;;;;;;;;;;6199972;28;20014;-84
2022/05/11 10:38:18;;;;;;;13.52;3.50;;;;;;;;;;6231777;28;20021;-84
2022/05/11 10:41:44;;;;;;;4.47;3.03;;;;;;;;;;6226777;28;20018;-84
2022/05/11 10:44:51;;;;;;;5.95;3.90;;;;;;;;;;6227409;28;20124;-84
2022/05/11 10:48:00;;;;;;;5.03;4.07;;;;;;;;;;6226466;28;20028;-84
2022/05/11 10:51:07;;;;;;;7.50;3.58;;;;;;;;;;6238484;28;20061;-84
2022/05/11 10:54:13;;;;;;;9.07;3.00;;;;;;;;;;6204798;28;20088;-84
2022/05/11 10:57:33;;;;;;;5.55;3.35;;;;;;;;;;6215586;28;20034;-84
2022/05/11 11:00:39;;;;;;;6.88;2.95;;;;;;;;;;6184480;28;20516;-84
2022/05/11 11:03:58;;;;;;;4.38;3.22;;;;;;;;;;6219612;28;20014;-84
2022/05/11 11:07:17;;;;;;;6.28;4.28;;;;;;;;;;6213549;28;20496;-84
2022/05/11 11:10:22;;;;;;;6.28;3.55;;;;;;;;;;6234680;28;20045;-84
2022/05/11 11:13:22;;;;;;;5.47;3.25;;;;;;;;;;6244282;28;20025;-84
2022/05/11 11:16:22;;;;;;;;;;;;;;;;;;6208255;28;20042;-84
2022/05/11 11:19:24;;;;;;;7.63;3.58;;;;;;;;;;6219041;28;20277;-84
2022/05/11 11:22:24;;;;;;;4.47;3.15;;;;;;;;;;6205309;28;20035;-84
2022/05/11 11:25:24;;;;;;;7.53;3.80;;;;;;;;;;6208866;28;20029;-84
2022/05/11 11:28:24;;;;;;;;;;;;;;;;;;6219467;28;20021;-84
2022/05/11 11:31:25;;;;;;;5.18;3.47;;;;;;;;;;6201788;28;20057;-84
2022/05/11 11:34:27;;;;;;;;;;;;;;;;;;6202070;28;20361;-84
2022/05/11 11:37:28;;;;;;;5.75;3.60;;;;;;;;;;6229984;28;19909;-84
2022/05/11 11:40:28;;;;;;;;;;;;;;;;;;6225677;28;20014;-84
2022/05/11 11:43:47;;;;;;;8.20;3.75;;;;;;;;;;6217190;28;20043;-84
2022/05/11 11:46:48;;;;;;;3.88;3.17;;;;;;;;;;6196219;28;20212;-84
2022/05/11 11:49:48;;;;;;;;;;;;;;;;;;6195139;28;20019;-84
2022/05/11 11:53:03;;;;;;;7.28;3.67;;;;;;;;;;6193495;28;19910;-84
2022/05/11 11:56:22;;;;;;;7.22;3.63;;;;;;;;;;6211277;28;20507;-84
2022/05/11 11:59:24;;;;;;;6.80;3.40;;;;;;;;;;6219109;28;20057;-84
2022/05/11 12:02:24;;;;;;;;;;;;;;;;;;6190123;28;20453;-84
2022/05/11 12:05:27;;;;;;;6.78;3.17;;;;;;;;;;6203287;28;20394;-84
2022/05/11 12:15:30;;;;;;;3.75;2.72;;;;;;;;;;6204689;28;20034;-84
2022/05/11 12:18:32;;;;;;;6.50;3.30;;;;;;;;;;6196182;28;20468;-84
2022/05/11 12:21:34;;;;;;;5.97;3.53;;;;;;;;;;6194549;28;20045;-84
2022/05/11 12:24:36;;;;;;;4.07;3.10;;;;;;;;;;6210454;28;20061;-84
2022/05/11 12:27:36;;;;;;;9.02;3.22;;;;;;;;;;6195394;28;20110;-83
2022/05/11 12:30:36;;;;;;;;;;;;;;;;;;6211836;28;20026;-83
2022/05/11 12:33:42;;;;;;;6.85;3.55;;;;;;;;;;6210470;28;19920;-84
2022/05/11 12:36:43;;;;;;;7.20;3.65;;;;;;;;;;6204115;28;20048;-84
2022/05/11 12:39:43;;;;;;;;;;;;;;;;;;6217460;28;20026;-84
2022/05/11 12:42:44;;;;;;;3.47;2.90;;;;;;;;;;6199713;28;19916;-84
2022/05/11 12:45:46;;;;;;;12.98;4.05;;;;;;;;;;6205750;28;20507;-84
2022/05/11 12:48:57;;;;;;;3.78;3.13;;;;;;;;;;6178632;28;20042;-84
2022/05/11 12:52:03;;;;;;;6.18;3.40;;;;;;;;;;6201259;28;20023;-84
2022/05/11 12:55:04;;;;;;;7.05;3.55;;;;;;;;;;6201648;28;20022;-84
2022/05/11 12:58:04;;;;;;;8.07;3.40;;;;;;;;;;6195635;28;20060;-84
2022/05/11 13:01:04;;;;;;;;;;;;;;;;;;6195547;28;20480;-84
2022/05/11 13:04:15;;;;;;;5.72;2.83;;;;;;;;;;6204058;28;20291;-84
2022/05/11 13:07:15;;;;;;;7.18;2.78;;;;;;;;;;6204694;28;20038;-84
2022/05/11 13:10:15;;;;;;;;;;;;;;;;;;6195979;28;20077;-84
2022/05/11 13:13:24;;;;;;;4.30;3.10;;;;;;;;;;6191105;28;19921;-84
2022/05/11 13:16:28;;;;;;;7.82;3.72;;;;;;;;;;6203545;28;20469;-84
2022/05/11 13:19:34;;;;;;;5.55;3.67;;;;;;;;;;6213048;28;20030;-84
2022/05/11 13:22:34;;;;;;;9.43;3.50;;;;;;;;;;6203582;28;20413;-85
2022/05/11 13:25:34;;;;;;;;;;;;;;;;;;6208017;28;20101;-84
2022/05/11 13:28:41;;;;;;;15.70;4.25;;;;;;;;;;6215580;28;19913;-84
2022/05/11 13:31:42;;;;;;;5.55;3.03;;;;;;;;;;6215596;28;20037;-84
2022/05/11 13:34:42;;;;;;;;;;;;;;;;;;6208685;28;20363;-84
2022/05/11 13:37:52;;;;;;;10.70;3.30;;;;;;;;;;6200062;28;20125;-84
2022/05/11 13:41:00;;;;;;;8.37;3.53;;;;;;;;;;6195376;28;20026;-84
2022/05/11 13:44:17;;;;;;;5.15;2.92;;;;;;;;;;6192692;28;20499;-84
2022/05/11 13:50:46;;;;;;;7.40;3.50;;;;;;;;;;6204182;28;20042;-83
2022/05/11 13:53:48;;;;;;;7.43;3.40;;;;;;;;;;6216462;28;20044;-84
2022/05/11 13:57:05;;;;;;;5.38;3.13;;;;;;;;;;6204902;28;20027;-84
2022/05/11 14:00:16;;;;;;;5.45;3.40;;;;;;;;;;6196665;28;20369;-84
2022/05/11 14:03:17;;;;;;;6.28;3.95;;;;;;;;;;6184110;28;20037;-84
2022/05/11 14:06:19;;;;;;;5.45;3.20;;;;;;;;;;6202853;28;20029;-84
2022/05/11 14:09:20;;;;;;;6.55;4.05;;;;;;;;;;6235351;28;20054;-85
2022/05/11 14:12:21;;;;;;;;;;;;;;;;;;6256022;28;20038;-84
2022/05/11 14:15:21;;;;;;;10.57;2.80;;;;;;;;;;6218928;28;19909;-84
2022/05/11 14:18:21;;;;;;;;;;;;;;;;;;6219356;28;20041;-84
2022/05/11 14:21:22;;;;;;;8.23;3.60;;;;;;;;;;6219538;28;19952;-85
2022/05/11 14:24:25;;;;;;;6.00;3.47;;;;;;;;;;6233759;28;20020;-85
2022/05/11 14:27:25;;;;;;;4.75;3.17;;;;;;;;;;6322769;28;20031;-84
2022/05/11 14:30:26;;;;;;;5.60;3.20;;;;;;;;;;6304882;28;20028;-84
2022/05/11 14:33:27;;;;;;;4.53;3.10;;;;;;;;;;6323996;28;20028;-84
2022/05/11 14:36:27;;;;;;;4.82;3.17;;;;;;;;;;6289507;28;20022;-84
2022/05/11 14:39:28;;;;;;;7.97;3.20;;;;;;;;;;6345294;28;20445;-84
2022/05/11 14:42:30;;;;;;;3.70;2.95;;;;;;;;;;6330308;28;20103;-84
2022/05/11 14:45:34;;;;;;;5.43;3.28;;;;;;;;;;6212453;28;20018;-84
2022/05/11 14:48:35;;;;;;;4.35;2.55;;;;;;;;;;6205608;28;20022;-85
2022/05/11 14:51:38;;;;;;;3.10;2.72;;;;;;;;;;6188368;28;20022;-84
2022/05/11 14:54:38;;;;;;;4.47;2.88;;;;;;;;;;6205551;28;20026;-84
2022/05/11 15:04:26;;;;;;;9.35;2.55;;;;;;;;;;6209947;28;20458;-84
2022/05/11 15:07:26;;;;;;;8.10;3.35;;;;;;;;;;6224534;28;20057;-83
2022/05/11 15:10:26;;;;;;;8.60;3.30;;;;;;;;;;6224734;28;20093;-83
2022/05/11 15:13:33;;;;;;;7.73;3.57;;;;;;;;;;6225339;28;20068;-83
2022/05/11 15:16:33;;;;;;;6.15;2.88;;;;;;;;;;6242354;28;20024;-83
2022/05/11 15:19:33;;;;;;;6.00;3.13;;;;;;;;;;6242716;28;20022;-83
2022/05/11 15:22:34;;;;;;;6.83;3.40;;;;;;;;;;6241200;28;20025;-84
2022/05/11 15:25:34;;;;;;;6.35;4.47;;;;;;;;;;6206956;28;20030;-83
2022/05/11 15:28:34;;;;;;;8.47;3.57;;;;;;;;;;6192245;28;20489;-83
2022/05/11 15:31:35;;;;;;;5.73;3.63;;;;;;;;;;6194671;28;20412;-83
2022/05/11 15:34:35;;;;;;;4.83;3.60;;;;;;;;;;6194532;28;20030;-83
2022/05/11 15:37:36;;;;;;;5.88;3.80;;;;;;;;;;6224027;28;20029;-83
2022/05/11 15:40:36;;;;;;;9.87;4.13;;;;;;;;;;6243147;28;20030;-83
2022/05/11 15:43:37;;;;;;;8.30;3.80;;;;;;;;;;6205738;28;20045;-83
2022/05/11 15:46:38;;;;;;;5.10;3.25;;;;;;;;;;6186813;28;20030;-83
2022/05/11 15:49:38;;;;;;;7.50;3.50;;;;;;;;;;6200423;28;20070;-84
2022/05/11 15:52:43;;;;;;;5.07;3.70;;;;;;;;;;6180921;28;20029;-84
2022/05/11 15:55:43;;;;;;;7.28;3.90;;;;;;;;;;6208914;28;20206;-84
2022/05/11 15:58:44;;;;;;;5.90;3.80;;;;;;;;;;6212227;28;20033;-84
2022/05/11 16:01:44;;;;;;;12.80;4.27;;;;;;;;;;6183909;28;20454;-84
2022/05/11 16:04:44;;;;;;;7.87;3.63;;;;;;;;;;6194917;28;20018;-84
2022/05/11 16:07:46;;;;;;;9.63;3.63;;;;;;;;;;6205075;28;20502;-84
2022/05/11 16:10:46;;;;;;;7.57;4.47;;;;;;;;;;6218156;28;20062;-84
2022/05/11 16:13:46;;;;;;;8.03;3.67;;;;;;;;;;6215485;28;20034;-84
2022/05/11 16:16:46;;;;;;;5.37;3.50;;;;;;;;;;6207181;28;20026;-83
2022/05/11 16:19:53;;;;;;;8.57;4.00;;;;;;;;;;6204887;28;20086;-84
2022/05/11 16:22:53;;;;;;;6.63;3.60;;;;;;;;;;6213138;28;20036;-84
2022/05/11 16:25:56;;;;;;;8.67;3.43;;;;;;;;;;6202665;28;20014;-84
2022/05/11 16:28:57;;;;;;;5.38;3.20;;;;;;;;;;6211408;28;20054;-84
2022/05/11 16:31:57;;;;;;;9.90;3.33;;;;;;;;;;6215829;28;20032;-84
2022/05/11 16:34:57;;;;;;;4.43;3.03;;;;;;;;;;6198284;28;20397;-83
2022/05/11 16:37:58;;;;;;;8.13;3.40;;;;;;;;;;6218101;28;20021;-84
2022/05/11 16:40:59;;;;;;;7.70;3.03;;;;;;;;;;6197932;28;20018;-84
2022/05/11 16:43:59;;;;;;;7.83;3.87;;;;;;;;;;6207541;28;20026;-84
2022/05/11 16:47:00;;;;;;;5.50;3.67;;;;;;;;;;6193400;28;20393;-84
2022/05/11 16:50:01;;;;;;;;;;;;;;;;;;6193213;28;20029;-84
2022/05/11 16:53:01;;;;;;;5.60;3.75;;;;;;;;;;6208331;28;19914;-84
2022/05/11 16:56:02;;;;;;;7.17;3.30;;;;;;;;;;6212430;28;20025;-84
2022/05/11 16:59:02;;;;;;;5.75;3.75;;;;;;;;;;6199987;28;20022;-84
2022/05/11 17:02:03;;;;;;;7.50;3.57;;;;;;;;;;6199076;28;20018;-84
2022/05/11 17:05:04;;;;;;;8.55;3.83;;;;;;;;;;6217530;28;20018;-85
2022/05/11 17:08:04;;;;;;;8.57;3.43;;;;;;;;;;6194054;28;20026;-85
2022/05/11 17:11:04;;;;;;;6.93;3.57;;;;;;;;;;6198194;28;20057;-85
2022/05/11 17:14:05;;;;;;;9.03;4.57;;;;;;;;;;6193847;28;20034;-85
2022/05/11 17:17:05;;;;;;;7.43;4.53;;;;;;;;;;6200307;28;20014;-85
2022/05/11 17:20:06;;;;;;;11.07;3.60;;;;;;;;;;6202295;28;20022;-85
2022/05/11 17:23:07;;;;;;;9.57;3.87;;;;;;;;;;6207891;28;20064;-85
2022/05/11 17:26:07;;;;;;;5.95;3.92;;;;;;;;;;6214791;28;20095;-85
2022/05/11 17:29:07;;;;;;;8.23;3.70;;;;;;;;;;6195391;28;20450;-85
2022/05/11 17:32:08;;;;;;;8.07;4.27;;;;;;;;;;6199347;28;20022;-85
2022/05/11 17:35:09;;;;;;;9.50;4.30;;;;;;;;;;6217380;28;20021;-85
2022/05/11 17:38:13;;;;;;;8.07;3.40;;;;;;;;;;6219762;28;20022;-85
2022/05/11 17:41:13;;;;;;;5.72;3.60;;;;;;;;;;6220757;28;20397;-85
2022/05/11 17:44:14;;;;;;;6.77;4.43;;;;;;;;;;6220835;28;20030;-85
2022/05/11 17:47:16;;;;;;;8.03;4.40;;;;;;;;;;6196548;28;20131;-85
2022/05/11 17:50:18;;;;;;;9.75;4.65;;;;;;;;;;6210126;28;20040;-85
2022/05/11 17:53:19;;;;;;;7.03;4.50;;;;;;;;;;6197119;28;20471;-85
2022/05/11 17:56:19;;;;;;;11.43;4.90;;;;;;;;;;6200844;28;20025;-85
2022/05/11 17:59:19;;;;;;;9.80;5.20;;;;;;;;;;6209955;28;20034;-85
2022/05/11 18:02:19;;;;;;;7.17;5.30;;;;;;;;;;6220162;28;20029;-85
2022/05/11 18:05:20;;;;;;;5.20;4.00;;;;;;;;;;6220950;28;20022;-85
2022/05/11 18:08:20;;;;;;;6.90;4.33;;;;;;;;;;6224100;28;20461;-85
2022/05/11 18:11:21;;;;;;;6.20;4.07;;;;;;;;;;6227521;28;20025;-85
2022/05/11 18:14:23;;;;;;;9.50;4.53;;;;;;;;;;6202996;28;20102;-85
2022/05/11 18:17:25;;;;;;;9.18;4.13;;;;;;;;;;6220411;28;20114;-85
2022/05/11 18:20:25;;;;;;;9.02;4.85;;;;;;;;;;6220058;28;20460;-85
2022/05/11 18:23:25;;;;;;;13.63;4.90;;;;;;;;;;6204494;28;20022;-85
2022/05/11 18:26:27;;;;;;;9.37;4.93;;;;;;;;;;6219840;28;20036;-86
2022/05/11 18:29:28;;;;;;;7.38;4.57;;;;;;;;;;6220176;28;20022;-85
2022/05/11 18:32:28;;;;;;;8.87;4.77;;;;;;;;;;6218061;28;20045;-85
2022/05/11 18:35:28;;;;;;;8.77;5.13;;;;;;;;;;6199000;28;20090;-85
2022/05/11 18:38:28;;;;;;;14.83;6.30;;;;;;;;;;6224720;28;20067;-85
2022/05/11 18:41:29;;;;;;;12.47;5.93;;;;;;;;;;6200685;28;20022;-85
2022/05/11 18:44:29;;;;;;;9.53;5.53;;;;;;;;;;6209114;28;20477;-86
2022/05/11 18:47:29;;;;;;;12.63;6.57;;;;;;;;;;6212167;28;20812;-85
2022/05/11 18:50:32;;;;;;;8.10;5.57;;;;;;;;;;6199508;28;20504;-85
2022/05/11 18:53:32;;;;;;;14.10;5.97;;;;;;;;;;6200180;28;20241;-85
2022/05/11 18:56:32;;;;;;;9.57;4.93;;;;;;;;;;6218298;28;20377;-85
2022/05/11 18:59:34;;;;;;;8.80;5.77;;;;;;;;;;6218155;28;20476;-85
2022/05/11 19:02:35;;;;;;;7.88;5.32;;;;;;;;;;6201448;28;20033;-85